createdAt,value
2022-10-29T00:12:23.223Z,257.73245
2022-10-29T00:27:25.452Z,118.53896
2022-10-29T00:42:27.803Z,30.53276
2022-10-29T00:57:30.037Z,1.79604
2022-10-29T01:12:32.296Z,0
2022-10-29T01:27:34.631Z,0
2022-10-29T01:42:36.858Z,0
2022-10-29T01:57:39.048Z,0
2022-10-29T02:12:41.309Z,0
2022-10-29T02:27:43.527Z,0
2022-10-29T02:42:45.777Z,0
2022-10-29T02:57:48.017Z,0
2022-10-29T03:12:50.368Z,0
2022-10-29T03:27:52.717Z,0
2022-10-29T03:42:55.215Z,0
2022-10-29T03:57:57.850Z,0
2022-10-29T04:13:00.383Z,0
2022-10-29T04:43:35.064Z,0
2022-10-29T04:58:37.395Z,0
2022-10-29T05:13:39.759Z,0
2022-10-29T05:28:42.062Z,0
2022-10-29T05:43:44.353Z,0
2022-10-29T05:58:46.672Z,0
2022-10-29T06:13:49.038Z,0
2022-10-29T06:28:51.333Z,0
2022-10-29T06:43:53.674Z,0
2022-10-29T06:58:56.047Z,0
2022-10-29T07:13:58.337Z,0
2022-10-29T07:29:00.705Z,0
2022-10-29T07:44:03.030Z,0
2022-10-29T07:59:05.414Z,0
2022-10-29T08:14:07.700Z,0
2022-10-29T08:29:10.008Z,0
2022-10-29T08:44:12.501Z,0
2022-10-29T08:59:14.810Z,0
2022-10-29T09:14:17.086Z,0
2022-10-29T09:29:19.373Z,0
2022-10-29T09:44:21.708Z,0
2022-10-29T09:59:24.038Z,0
2022-10-29T10:14:26.394Z,0
2022-10-29T10:29:28.691Z,0
2022-10-29T10:44:30.940Z,0
2022-10-29T10:59:33.216Z,0
2022-10-29T11:14:35.467Z,0
2022-10-29T11:29:37.684Z,0
2022-10-29T11:44:39.875Z,0
2022-10-29T11:59:42.377Z,0
2022-10-29T12:14:44.636Z,0
2022-10-29T12:29:46.927Z,0
2022-10-29T12:44:49.240Z,0
2022-10-29T12:59:51.483Z,0
2022-10-29T13:14:53.687Z,0
2022-10-29T13:29:56.077Z,0
2022-10-29T13:44:58.393Z,0
2022-10-29T14:00:00.605Z,0
2022-10-29T14:15:03.125Z,1.79604
2022-10-29T14:30:05.484Z,26.04265
2022-10-29T14:45:07.730Z,102.37457
2022-10-29T15:00:09.949Z,143.68359
2022-10-29T15:15:12.204Z,269.40674
2022-10-29T15:30:14.469Z,449.01123
2022-10-29T15:45:16.900Z,608.85925
2022-10-29T16:00:19.331Z,738.1745
2022-10-29T16:15:21.645Z,1033.6239
2022-10-29T16:30:23.945Z,1757.42993
2022-10-29T16:45:26.211Z,2546.79175
2022-10-29T17:00:28.450Z,4247.64648
2022-10-29T17:15:30.779Z,3752.83594
2022-10-29T17:30:33.188Z,2773.99146
2022-10-29T17:45:35.429Z,2251.34229
2022-10-29T18:00:37.604Z,3654.95142
2022-10-29T18:15:39.844Z,2795.54395
2022-10-29T18:30:42.154Z,2694.06738
2022-10-29T18:45:44.340Z,2766.80713
2022-10-29T19:00:46.643Z,2565.65015
2022-10-29T19:15:48.901Z,2965.27026
2022-10-29T19:30:51.084Z,2818.89258
2022-10-29T19:45:53.315Z,3225.69678
2022-10-29T20:00:55.692Z,3207.73633
2022-10-29T20:15:57.931Z,3165.5293
2022-10-29T20:31:00.261Z,4118.33105
2022-10-29T20:46:02.478Z,4446.10938
2022-10-29T21:01:04.741Z,5209.42822
2022-10-29T21:16:07.168Z,5774.28467
2022-10-29T21:31:09.404Z,2222.60571
2022-10-29T21:46:11.641Z,2556.66992
2022-10-29T22:01:14.011Z,2791.9519
2022-10-29T22:16:16.431Z,1731.38733
2022-10-29T22:31:18.912Z,3706.13867
2022-10-29T22:46:21.136Z,1641.58508
2022-10-29T23:01:23.694Z,1056.07446
2022-10-29T23:16:26.071Z,567.55023
2022-10-29T23:31:28.427Z,457.09344
2022-10-29T23:46:30.655Z,444.52112
